createdAt,value
2022-07-31T00:00:21.992Z,49.5
2022-07-31T00:05:42.863Z,49.4
2022-07-31T00:11:01.080Z,48.1
2022-07-31T00:16:20.161Z,48.5
2022-07-31T00:21:38.927Z,49.5
2022-07-31T00:26:57.408Z,49.3
2022-07-31T00:32:15.896Z,49.1
2022-07-31T00:37:33.815Z,48.9
2022-07-31T00:42:52.578Z,48
2022-07-31T00:48:10.792Z,48.4
2022-07-31T00:53:31.161Z,47.9
2022-07-31T00:58:49.640Z,47.9
2022-07-31T01:04:15.923Z,48.2
2022-07-31T01:09:34.748Z,48.5
2022-07-31T01:14:53.222Z,48.6
2022-07-31T01:20:11.698Z,47.6
2022-07-31T01:25:29.902Z,48.2
2022-07-31T01:31:26.497Z,48.4
2022-07-31T01:36:45.572Z,48.7
2022-07-31T01:42:04.961Z,47.9
2022-07-31T01:47:23.367Z,48
2022-07-31T01:52:42.132Z,47.9
2022-07-31T01:58:00.335Z,47.8
2022-07-31T02:03:45.794Z,48
2022-07-31T02:09:09.773Z,48
2022-07-31T02:14:27.966Z,47.7
2022-07-31T02:20:01.268Z,46.5
2022-07-31T02:25:20.038Z,47.7
2022-07-31T02:30:40.277Z,46.8
2022-07-31T02:35:58.475Z,46.7
2022-07-31T02:41:16.957Z,47.5
2022-07-31T02:46:35.435Z,47.2
2022-07-31T02:51:53.633Z,47.3
2022-07-31T02:57:12.415Z,46.4
2022-07-31T03:02:38.733Z,46.6
2022-07-31T03:07:57.216Z,45.6
2022-07-31T03:13:16.976Z,46.5
2022-07-31T03:18:35.464Z,45.6
2022-07-31T03:23:53.665Z,45.4
2022-07-31T03:29:44.155Z,46.5
2022-07-31T03:35:02.367Z,46.2
2022-07-31T03:40:20.289Z,45.7
2022-07-31T03:45:39.052Z,45
2022-07-31T03:50:57.269Z,45.7
2022-07-31T03:56:15.472Z,45.4
2022-07-31T04:01:59.504Z,45.5
2022-07-31T04:07:17.993Z,45.2
2022-07-31T04:12:36.200Z,44.8
2022-07-31T04:17:54.683Z,45
2022-07-31T04:23:13.255Z,46.4
2022-07-31T04:28:32.189Z,45.1
2022-07-31T04:33:57.569Z,45.8
2022-07-31T04:39:16.060Z,45.2
2022-07-31T04:44:34.546Z,45.7
2022-07-31T04:49:52.744Z,45.5
2022-07-31T04:55:10.933Z,45.4
2022-07-31T05:00:29.429Z,45.4
2022-07-31T05:05:48.211Z,46
2022-07-31T05:10:50.525Z,45.6
2022-07-31T05:16:09.280Z,45.7
2022-07-31T05:21:27.770Z,45.7
2022-07-31T05:26:46.531Z,46.7
2022-07-31T05:32:05.017Z,46.2
2022-07-31T05:37:23.579Z,46.5
2022-07-31T05:42:41.751Z,46.7
2022-07-31T05:47:59.965Z,45.2
2022-07-31T05:53:18.460Z,46.4
2022-07-31T05:58:36.953Z,45.7
2022-07-31T06:03:55.141Z,45.2
2022-07-31T06:09:13.908Z,46.1
2022-07-31T06:14:32.662Z,46
2022-07-31T06:19:51.143Z,45.6
2022-07-31T06:25:13.418Z,46.1
2022-07-31T06:30:33.398Z,45.3
2022-07-31T06:35:52.106Z,45.1
2022-07-31T06:41:10.596Z,45.7
2022-07-31T06:46:29.081Z,46.4
2022-07-31T06:51:47.288Z,45.4
2022-07-31T06:57:06.048Z,46.4
2022-07-31T07:02:24.521Z,45.6
2022-07-31T07:07:43.284Z,45.9
2022-07-31T07:13:01.786Z,46.6
2022-07-31T07:18:20.555Z,45.8
2022-07-31T07:23:39.038Z,46.3
2022-07-31T07:28:57.801Z,46.1
2022-07-31T07:34:16.557Z,46.1
2022-07-31T07:39:34.736Z,49.2
2022-07-31T07:44:52.942Z,46.1
2022-07-31T07:50:11.705Z,46.2
2022-07-31T07:55:38.461Z,46.1
2022-07-31T08:00:57.169Z,47.1
2022-07-31T08:06:15.403Z,47.1
2022-07-31T08:11:34.175Z,46.7
2022-07-31T08:16:52.932Z,47.6
2022-07-31T08:22:11.697Z,47.7
2022-07-31T08:27:41.224Z,46.8
2022-07-31T08:33:01.888Z,47.4
2022-07-31T08:38:20.397Z,47.4
2022-07-31T08:44:04.821Z,46.6
2022-07-31T08:49:23.462Z,47.6
2022-07-31T08:54:42.022Z,47.5
2022-07-31T09:00:00.809Z,47.3
2022-07-31T09:05:18.998Z,46.8
2022-07-31T09:10:37.485Z,46.8
2022-07-31T09:15:40.627Z,46.1
2022-07-31T09:20:59.113Z,46.6
2022-07-31T09:26:17.322Z,46.6
2022-07-31T09:31:36.087Z,46.5
2022-07-31T09:36:54.854Z,46.6
2022-07-31T09:42:20.773Z,47.4
2022-07-31T09:47:39.844Z,46.3
2022-07-31T09:52:58.595Z,44.7
2022-07-31T09:58:17.360Z,44.6
2022-07-31T10:03:35.570Z,44.7
2022-07-31T10:08:54.020Z,45.1
2022-07-31T10:14:12.798Z,43.8
2022-07-31T10:19:30.981Z,43
2022-07-31T10:24:49.455Z,44.3
2022-07-31T10:30:13.479Z,43.6
2022-07-31T10:35:32.235Z,44
2022-07-31T10:40:50.986Z,43.1
2022-07-31T10:46:09.751Z,43.2
2022-07-31T10:51:27.975Z,42.7
2022-07-31T10:56:46.741Z,42.8
2022-07-31T11:02:05.486Z,43.2
2022-07-31T11:07:23.695Z,42.3
2022-07-31T11:12:42.257Z,42.9
2022-07-31T11:18:32.574Z,42.3
2022-07-31T11:24:11.410Z,41.9
2022-07-31T11:30:09.351Z,42.5
2022-07-31T11:35:30.546Z,41
2022-07-31T11:40:49.887Z,40.7
2022-07-31T11:46:08.829Z,40.4
2022-07-31T11:51:29.404Z,40.8
2022-07-31T11:56:48.166Z,40.7
2022-07-31T12:02:06.740Z,41.5
2022-07-31T12:07:09.562Z,40.9
2022-07-31T12:12:28.132Z,41.3
2022-07-31T12:17:46.888Z,40.2
2022-07-31T12:23:05.648Z,40.9
2022-07-31T12:28:27.063Z,39.9
2022-07-31T12:33:45.553Z,40.9
2022-07-31T12:39:04.311Z,40.1
2022-07-31T12:44:22.871Z,38.8
2022-07-31T12:49:41.572Z,39
2022-07-31T12:55:00.111Z,39.4
2022-07-31T13:00:18.274Z,40.1
2022-07-31T13:05:37.006Z,41
2022-07-31T13:10:55.777Z,40.7
2022-07-31T13:16:13.974Z,41
2022-07-31T13:21:16.853Z,40.7
2022-07-31T13:26:35.605Z,41.2
2022-07-31T13:31:54.088Z,40.6
2022-07-31T13:37:12.838Z,39.1
2022-07-31T13:42:31.598Z,39.1
2022-07-31T13:47:57.055Z,39.3
2022-07-31T13:53:21.002Z,39
2022-07-31T13:58:40.518Z,40.3
2022-07-31T14:03:59.286Z,40.4
2022-07-31T14:09:19.320Z,40.2
2022-07-31T14:14:37.519Z,39
2022-07-31T14:20:01.546Z,39.8
2022-07-31T14:25:19.759Z,39.8
2022-07-31T14:30:38.521Z,38.8
2022-07-31T14:35:56.725Z,39.4
2022-07-31T14:41:14.935Z,38.5
2022-07-31T14:46:33.408Z,39.1
2022-07-31T14:51:51.898Z,38.9
2022-07-31T14:57:10.657Z,38.3
2022-07-31T15:02:29.738Z,39.2
2022-07-31T15:07:49.595Z,39.2
2022-07-31T15:13:08.421Z,38.6
2022-07-31T15:18:26.912Z,37.8
2022-07-31T15:23:45.399Z,38.7
2022-07-31T15:29:03.602Z,37.9
2022-07-31T15:34:22.085Z,37.8
2022-07-31T15:39:40.842Z,38.3
2022-07-31T15:44:59.047Z,38.9
2022-07-31T15:50:17.241Z,38.4
2022-07-31T15:55:36.000Z,38.8
2022-07-31T16:00:54.596Z,39.1
2022-07-31T16:06:18.718Z,38.7
2022-07-31T16:12:06.030Z,39
2022-07-31T16:17:24.533Z,38.6
2022-07-31T16:22:43.267Z,39.8
2022-07-31T16:28:01.765Z,40
2022-07-31T16:33:20.218Z,38.9
2022-07-31T16:38:38.714Z,39.2
2022-07-31T16:43:56.623Z,40
2022-07-31T16:49:37.496Z,39.8
2022-07-31T16:54:55.377Z,39.2
2022-07-31T17:00:13.310Z,38.8
2022-07-31T17:05:31.472Z,39.4
2022-07-31T17:10:55.482Z,38.7
2022-07-31T17:16:13.694Z,40
2022-07-31T17:21:34.582Z,38.7
2022-07-31T17:26:53.308Z,38.6
2022-07-31T17:32:11.769Z,39.2
2022-07-31T17:37:30.262Z,38.7
2022-07-31T17:42:48.192Z,38.4
2022-07-31T17:48:06.682Z,38
2022-07-31T17:53:59.026Z,38.6
2022-07-31T17:59:18.105Z,38.6
2022-07-31T18:04:36.296Z,38.2
2022-07-31T18:09:54.785Z,38
2022-07-31T18:15:13.232Z,38.4
2022-07-31T18:20:31.949Z,38.8
2022-07-31T18:25:50.690Z,38.5
2022-07-31T18:31:36.333Z,38.9
2022-07-31T18:36:55.816Z,38.4
2022-07-31T18:42:14.570Z,39.8
2022-07-31T18:47:32.786Z,38.9
2022-07-31T18:52:51.245Z,38.9
2022-07-31T18:58:09.691Z,39.3
2022-07-31T19:03:28.133Z,39.4
2022-07-31T19:08:46.872Z,38.5
2022-07-31T19:14:05.350Z,38.5
2022-07-31T19:19:31.764Z,38.6
2022-07-31T19:25:03.723Z,38.9
2022-07-31T19:30:22.210Z,39.6
2022-07-31T19:36:03.318Z,39.7
2022-07-31T19:41:21.868Z,39.6
2022-07-31T19:46:40.626Z,39.9
2022-07-31T19:52:03.084Z,39.7
2022-07-31T19:57:21.506Z,39.8
2022-07-31T20:02:39.989Z,39.1
2022-07-31T20:07:58.749Z,38.4
2022-07-31T20:13:16.957Z,39.4
2022-07-31T20:18:35.140Z,39.3
2022-07-31T20:23:53.614Z,39.6
2022-07-31T20:29:12.105Z,39.7
2022-07-31T20:34:30.600Z,38.5
2022-07-31T20:39:49.740Z,38.2
2022-07-31T20:45:07.661Z,39.7
2022-07-31T20:50:26.148Z,38.8
2022-07-31T20:55:44.910Z,39.6
2022-07-31T21:01:03.836Z,38.5
2022-07-31T21:06:22.057Z,39
2022-07-31T21:11:42.854Z,37.9
2022-07-31T21:17:01.617Z,37.4
2022-07-31T21:22:19.830Z,37.8
2022-07-31T21:27:38.035Z,37.6
2022-07-31T21:32:56.812Z,38.2
2022-07-31T21:38:15.347Z,37.4
2022-07-31T21:44:00.520Z,37.4
2022-07-31T21:49:20.028Z,37.6
2022-07-31T21:54:38.283Z,38.3
2022-07-31T21:59:56.769Z,38.5
2022-07-31T22:05:15.390Z,39.1
2022-07-31T22:10:33.867Z,38.8
2022-07-31T22:16:01.334Z,37.6
2022-07-31T22:21:19.486Z,38.3
2022-07-31T22:26:38.246Z,37.6
2022-07-31T22:31:56.730Z,38.2
2022-07-31T22:37:15.496Z,38.3
2022-07-31T22:42:33.970Z,38.4
2022-07-31T22:47:52.466Z,38.6
2022-07-31T22:53:10.948Z,38.5
2022-07-31T22:58:29.381Z,38.2
2022-07-31T23:03:47.878Z,38.6
2022-07-31T23:09:06.088Z,39
2022-07-31T23:14:24.852Z,38.9
2022-07-31T23:19:54.774Z,39.6
2022-07-31T23:25:13.048Z,38
2022-07-31T23:30:31.224Z,38
2022-07-31T23:35:49.995Z,38.2
2022-07-31T23:41:08.188Z,37.8
2022-07-31T23:46:28.101Z,36.9
2022-07-31T23:51:46.587Z,37.6
2022-07-31T23:57:04.784Z,37.5
